Juliana Airport, Saint Maartin

9:12 AM AST on December 18, 2014 (GMT -0400)
Cole Bay, St.Maarten | Change Station
CLOSE
Current Station
Personal Weather Station
Location: Cole Bay, SINT MAARTEN
Elevation: 171 ft
Nearby Weather Stations

Elev 171 ft 18.04 °N, 63.08 °W | Updated 1 minute ago

Mostly Cloudy
Mostly Cloudy
74.9 °F
Feels Like 75 °F
N
2.0
Wind Variable Wind from NNW
Gusts 8.0 mph

Today
High -- | Low -- °F
--% Chance of Precip.
Yesterday
High -- | Low -- °F
Precip. -- in
6:37 AM 5:40 PM
Waning Crescent, 14% visible
Pressure 30.04 in
Visibility 6.2 miles
Clouds Few 1700 ft
Mostly Cloudy 3500 ft
Heat Index 75 °F
Dew Point 70 °F
Humidity 86%
Rainfall 0.00 in
Snow Depth Not available.
UV 2 out of 12
Pollen Not available.
Air Quality Not available.
Flu Activity Not available.
METAR TNCM 181300Z 01003KT 9999 VCSH FEW017TCU BKN035 25/21 Q1017 A3003 TEMPO SHRA RMK JP TO NE, E,SE

More Conditions Fewer Conditions

Pressure 30.04 in
Visibility 6.2 miles
Clouds Few 1700 ft
Mostly Cloudy 3500 ft
Heat Index 75 °F
Dew Point 70 °F
Humidity 86%
Rainfall 0.00 in
Snow Depth Not available.
UV 2 out of 12
Pollen Not available.
Air Quality Not available.
Flu Activity Not available.
METAR TNCM 181300Z 01003KT 9999 VCSH FEW017TCU BKN035 25/21 Q1017 A3003 TEMPO SHRA RMK JP TO NE, E,SE

More Conditions Fewer Conditions

10-Day Weather Forecast

Almanac

Astronomy

Dec. 18, 2014 Rise Set
Actual Time
Civil Twilight
Nautical Twilight
Astronomical Twilight
Moon
Length of Visible Light
Length of Day
Tomorrow will be .
, % of the Moon is Illuminated

Today's Extremes

Country Highs Country Lows

Community

WunderPhotos

Upload Photos

1,778,925 photos uploaded!

WunderBlogs® & News

Nearby

Air Quality

  Air Quality AQ Index Pollutant
Not available.

Snow Depth

Station Depth Elevation

Earthquake Activity

City Distance Mag. Time & Date
Minimum magnitude displayed is 2.5.

Coastal Water Temperatures

Place Temperature

Nearby Weather Stations